sensor_id;sensor_type;location;lat;lon;timestamp;pressure;altitude;pressure_sealevel;temperature;humidity
31225;BME280;17847;31.524;74.366;2023-01-16T00:02:01;99113.97;;;5.58;74.25
31225;BME280;17847;31.524;74.366;2023-01-16T00:04:57;99115.75;;;5.40;75.23
31225;BME280;17847;31.524;74.366;2023-01-16T00:07:33;99113.00;;;5.41;74.61
31225;BME280;17847;31.524;74.366;2023-01-16T00:10:28;99110.50;;;5.58;74.08
31225;BME280;17847;31.524;74.366;2023-01-16T00:13:11;99117.28;;;5.42;75.11
31225;BME280;17847;31.524;74.366;2023-01-16T00:16:00;99120.41;;;5.28;75.27
31225;BME280;17847;31.524;74.366;2023-01-16T00:18:43;99114.78;;;5.23;75.09
31225;BME280;17847;31.524;74.366;2023-01-16T00:21:33;99118.38;;;5.22;75.30
31225;BME280;17847;31.524;74.366;2023-01-16T00:24:16;99124.31;;;5.24;75.44
31225;BME280;17847;31.524;74.366;2023-01-16T00:27:04;99126.16;;;5.14;75.25
31225;BME280;17847;31.524;74.366;2023-01-16T00:29:47;99127.13;;;4.95;75.80
31225;BME280;17847;31.524;74.366;2023-01-16T00:32:42;99127.97;;;5.31;75.77
31225;BME280;17847;31.524;74.366;2023-01-16T00:35:18;99126.53;;;5.19;75.84
31225;BME280;17847;31.524;74.366;2023-01-16T00:38:15;99129.78;;;5.13;75.82
31225;BME280;17847;31.524;74.366;2023-01-16T00:40:58;99138.41;;;4.96;75.89
31225;BME280;17847;31.524;74.366;2023-01-16T00:43:53;99140.78;;;4.99;76.08
31225;BME280;17847;31.524;74.366;2023-01-16T00:46:48;99141.44;;;5.01;76.52
31225;BME280;17847;31.524;74.366;2023-01-16T00:49:31;99138.22;;;5.07;76.44
31225;BME280;17847;31.524;74.366;2023-01-16T00:52:26;99154.78;;;4.90;75.77
31225;BME280;17847;31.524;74.366;2023-01-16T00:55:02;99161.69;;;4.91;75.98
31225;BME280;17847;31.524;74.366;2023-01-16T00:57:57;99158.09;;;4.82;75.89
31225;BME280;17847;31.524;74.366;2023-01-16T01:00:39;99161.19;;;4.78;75.95
31225;BME280;17847;31.524;74.366;2023-01-16T01:03:28;99164.97;;;4.93;75.38
31225;BME280;17847;31.524;74.366;2023-01-16T01:06:08;99169.28;;;4.84;76.01
31225;BME280;17847;31.524;74.366;2023-01-16T01:09:04;99166.69;;;5.12;75.15
31225;BME280;17847;31.524;74.366;2023-01-16T01:11:46;99175.03;;;5.25;75.10
31225;BME280;17847;31.524;74.366;2023-01-16T01:14:35;99174.84;;;5.09;75.10
31225;BME280;17847;31.524;74.366;2023-01-16T01:17:16;99178.56;;;5.06;75.51
31225;BME280;17847;31.524;74.366;2023-01-16T01:20:05;99186.28;;;5.17;75.29
31225;BME280;17847;31.524;74.366;2023-01-16T01:22:44;99188.97;;;5.25;74.61
31225;BME280;17847;31.524;74.366;2023-01-16T01:25:39;99195.59;;;5.02;75.06
31225;BME280;17847;31.524;74.366;2023-01-16T01:28:22;99186.94;;;5.19;75.14
31225;BME280;17847;31.524;74.366;2023-01-16T01:31:11;99197.66;;;5.08;74.13
31225;BME280;17847;31.524;74.366;2023-01-16T01:33:54;99204.66;;;5.17;74.69
31225;BME280;17847;31.524;74.366;2023-01-16T01:36:43;99207.75;;;5.03;74.21
31225;BME280;17847;31.524;74.366;2023-01-16T01:39:26;99212.78;;;4.87;74.24
31225;BME280;17847;31.524;74.366;2023-01-16T01:42:14;99215.53;;;4.95;74.90
31225;BME280;17847;31.524;74.366;2023-01-16T01:45:22;99213.53;;;5.07;74.96
31225;BME280;17847;31.524;74.366;2023-01-16T01:48:27;99224.59;;;5.01;74.81
31225;BME280;17847;31.524;74.366;2023-01-16T01:51:26;99224.50;;;4.92;73.87
31225;BME280;17847;31.524;74.366;2023-01-16T01:54:23;99227.16;;;4.83;74.76
31225;BME280;17847;31.524;74.366;2023-01-16T01:57:10;99233.47;;;5.00;74.40
31225;BME280;17847;31.524;74.366;2023-01-16T02:00:04;99242.50;;;4.78;74.54
31225;BME280;17847;31.524;74.366;2023-01-16T02:02:53;99238.06;;;4.78;74.27
31225;BME280;17847;31.524;74.366;2023-01-16T02:05:48;99241.94;;;4.74;74.52
31225;BME280;17847;31.524;74.366;2023-01-16T02:08:33;99246.09;;;5.14;73.86
31225;BME280;17847;31.524;74.366;2023-01-16T02:11:54;99248.13;;;4.92;73.83
31225;BME280;17847;31.524;74.366;2023-01-16T02:14:41;99255.16;;;4.92;73.86
31225;BME280;17847;31.524;74.366;2023-01-16T02:17:44;99261.59;;;5.07;74.23
31225;BME280;17847;31.524;74.366;2023-01-16T02:21:11;99269.59;;;5.15;73.45
31225;BME280;17847;31.524;74.366;2023-01-16T02:33:05;99272.41;;;5.31;73.51
31225;BME280;17847;31.524;74.366;2023-01-16T02:36:16;99281.06;;;5.14;73.46
31225;BME280;17847;31.524;74.366;2023-01-16T02:42:36;99281.44;;;5.19;73.03
31225;BME280;17847;31.524;74.366;2023-01-16T02:48:25;99279.91;;;5.81;71.90
31225;BME280;17847;31.524;74.366;2023-01-16T02:57:15;99296.63;;;5.80;72.20
31225;BME280;17847;31.524;74.366;2023-01-16T03:00:06;99302.56;;;5.82;72.45
31225;BME280;17847;31.524;74.366;2023-01-16T03:03:01;99307.66;;;5.93;72.08
31225;BME280;17847;31.524;74.366;2023-01-16T03:05:53;99316.03;;;6.24;71.69
31225;BME280;17847;31.524;74.366;2023-01-16T03:11:57;99320.47;;;6.23;71.84
31225;BME280;17847;31.524;74.366;2023-01-16T03:14:55;99315.22;;;6.41;72.30
31225;BME280;17847;31.524;74.366;2023-01-16T03:21:03;99326.41;;;6.87;71.68
31225;BME280;17847;31.524;74.366;2023-01-16T03:23:55;99334.34;;;7.12;71.58
31225;BME280;17847;31.524;74.366;2023-01-16T03:26:46;99333.72;;;7.52;70.44
31225;BME280;17847;31.524;74.366;2023-01-16T03:33:07;99339.75;;;9.89;62.70
31225;BME280;17847;31.524;74.366;2023-01-16T03:36:04;99336.31;;;10.88;58.09
31225;BME280;17847;31.524;74.366;2023-01-16T03:38:50;99343.06;;;11.42;57.00
31225;BME280;17847;31.524;74.366;2023-01-16T03:41:41;99348.38;;;12.15;54.13
31225;BME280;17847;31.524;74.366;2023-01-16T03:44:35;99353.41;;;12.68;49.59
31225;BME280;17847;31.524;74.366;2023-01-16T03:47:39;99362.44;;;13.16;47.57
31225;BME280;17847;31.524;74.366;2023-01-16T03:50:24;99358.78;;;13.79;48.85
31225;BME280;17847;31.524;74.366;2023-01-16T03:53:16;99357.56;;;14.29;45.47
31225;BME280;17847;31.524;74.366;2023-01-16T03:59:07;99365.34;;;15.17;42.56
31225;BME280;17847;31.524;74.366;2023-01-16T04:01:52;99361.59;;;15.32;41.12
31225;BME280;17847;31.524;74.366;2023-01-16T04:05:29;99370.25;;;15.34;37.90
31225;BME280;17847;31.524;74.366;2023-01-16T04:08:16;99368.69;;;16.48;32.80
31225;BME280;17847;31.524;74.366;2023-01-16T04:11:06;99376.84;;;16.66;33.45
31225;BME280;17847;31.524;74.366;2023-01-16T04:13:44;99375.81;;;17.23;31.71
31225;BME280;17847;31.524;74.366;2023-01-16T04:16:40;99377.53;;;18.04;30.90
31225;BME280;17847;31.524;74.366;2023-01-16T04:19:24;99385.88;;;17.95;30.91
31225;BME280;17847;31.524;74.366;2023-01-16T04:22:33;99387.72;;;18.13;28.29
31225;BME280;17847;31.524;74.366;2023-01-16T04:25:17;99395.84;;;18.73;29.01
31225;BME280;17847;31.524;74.366;2023-01-16T04:28:06;99391.00;;;18.93;25.14
31225;BME280;17847;31.524;74.366;2023-01-16T04:30:41;99403.69;;;18.38;26.52
31225;BME280;17847;31.524;74.366;2023-01-16T04:33:37;99402.03;;;18.73;27.87
31225;BME280;17847;31.524;74.366;2023-01-16T04:36:19;99391.16;;;18.68;22.79
31225;BME280;17847;31.524;74.366;2023-01-16T04:39:07;99401.81;;;18.75;23.75
31225;BME280;17847;31.524;74.366;2023-01-16T04:41:48;99404.34;;;18.52;22.21
31225;BME280;17847;31.524;74.366;2023-01-16T04:44:39;99408.25;;;19.39;22.69
31225;BME280;17847;31.524;74.366;2023-01-16T04:47:34;99413.53;;;18.92;22.66
31225;BME280;17847;31.524;74.366;2023-01-16T04:50:18;99413.72;;;18.79;20.85
31225;BME280;17847;31.524;74.366;2023-01-16T04:53:07;99414.72;;;19.49;19.72
31225;BME280;17847;31.524;74.366;2023-01-16T04:55:50;99410.94;;;19.39;20.89
31225;BME280;17847;31.524;74.366;2023-01-16T04:58:38;99419.16;;;19.55;19.38
31225;BME280;17847;31.524;74.366;2023-01-16T05:01:21;99419.53;;;19.59;21.67
31225;BME280;17847;31.524;74.366;2023-01-16T05:04:16;99426.91;;;19.22;20.01
31225;BME280;17847;31.524;74.366;2023-01-16T05:06:59;99428.97;;;19.08;20.24
31225;BME280;17847;31.524;74.366;2023-01-16T05:09:48;99425.84;;;19.11;21.85
31225;BME280;17847;31.524;74.366;2023-01-16T05:12:31;99425.88;;;18.63;19.98
31225;BME280;17847;31.524;74.366;2023-01-16T05:15:27;99430.53;;;18.86;20.74
31225;BME280;17847;31.524;74.366;2023-01-16T05:18:10;99427.50;;;18.82;19.98
31225;BME280;17847;31.524;74.366;2023-01-16T05:20:59;99430.19;;;18.53;20.43
31225;BME280;17847;31.524;74.366;2023-01-16T05:23:48;99431.03;;;18.47;20.43
31225;BME280;17847;31.524;74.366;2023-01-16T05:26:37;99433.34;;;18.25;21.90
31225;BME280;17847;31.524;74.366;2023-01-16T05:29:20;99438.94;;;18.60;20.69
31225;BME280;17847;31.524;74.366;2023-01-16T05:32:09;99434.19;;;18.25;19.92
31225;BME280;17847;31.524;74.366;2023-01-16T05:34:51;99439.75;;;18.06;20.21
31225;BME280;17847;31.524;74.366;2023-01-16T05:37:43;99443.25;;;18.42;21.44
31225;BME280;17847;31.524;74.366;2023-01-16T05:40:25;99437.31;;;18.40;22.36
31225;BME280;17847;31.524;74.366;2023-01-16T05:43:21;99439.31;;;18.09;21.85
31225;BME280;17847;31.524;74.366;2023-01-16T05:46:10;99437.31;;;18.04;20.64
31225;BME280;17847;31.524;74.366;2023-01-16T05:48:52;99439.19;;;18.40;20.67
31225;BME280;17847;31.524;74.366;2023-01-16T05:51:41;99435.88;;;18.74;20.32
31225;BME280;17847;31.524;74.366;2023-01-16T05:54:23;99434.28;;;18.19;17.72
31225;BME280;17847;31.524;74.366;2023-01-16T05:57:12;99427.69;;;18.15;19.76
31225;BME280;17847;31.524;74.366;2023-01-16T05:59:54;99439.75;;;18.42;20.42
31225;BME280;17847;31.524;74.366;2023-01-16T06:02:43;99431.84;;;18.95;18.70
31225;BME280;17847;31.524;74.366;2023-01-16T06:05:28;99431.16;;;19.41;18.17
31225;BME280;17847;31.524;74.366;2023-01-16T06:08:17;99426.41;;;19.02;17.83
31225;BME280;17847;31.524;74.366;2023-01-16T06:10:59;99421.28;;;18.52;16.84
31225;BME280;17847;31.524;74.366;2023-01-16T06:13:48;99427.56;;;19.06;18.14
31225;BME280;17847;31.524;74.366;2023-01-16T06:16:31;99419.03;;;19.62;17.38
31225;BME280;17847;31.524;74.366;2023-01-16T06:19:20;99415.66;;;19.90;18.15
31225;BME280;17847;31.524;74.366;2023-01-16T06:22:02;99419.94;;;19.33;16.95
31225;BME280;17847;31.524;74.366;2023-01-16T06:24:51;99412.78;;;19.26;15.06
31225;BME280;17847;31.524;74.366;2023-01-16T06:27:34;99407.66;;;18.83;14.30
31225;BME280;17847;31.524;74.366;2023-01-16T06:30:23;99419.03;;;18.97;15.46
31225;BME280;17847;31.524;74.366;2023-01-16T06:33:05;99417.69;;;19.18;16.17
31225;BME280;17847;31.524;74.366;2023-01-16T06:35:54;99416.16;;;19.22;15.76
31225;BME280;17847;31.524;74.366;2023-01-16T06:38:37;99398.94;;;19.53;16.61
31225;BME280;17847;31.524;74.366;2023-01-16T06:41:25;99406.72;;;19.31;14.95
31225;BME280;17847;31.524;74.366;2023-01-16T06:44:14;99397.06;;;19.53;16.45
31225;BME280;17847;31.524;74.366;2023-01-16T06:47:09;99392.19;;;19.09;14.58
31225;BME280;17847;31.524;74.366;2023-01-16T06:49:51;99394.47;;;19.35;17.48
31225;BME280;17847;31.524;74.366;2023-01-16T06:52:40;99375.81;;;19.52;16.13
31225;BME280;17847;31.524;74.366;2023-01-16T06:55:22;99385.31;;;19.13;15.94
31225;BME280;17847;31.524;74.366;2023-01-16T06:58:11;99371.09;;;19.24;16.94
31225;BME280;17847;31.524;74.366;2023-01-16T07:00:53;99370.72;;;19.09;15.59
31225;BME280;17847;31.524;74.366;2023-01-16T07:03:42;99371.19;;;19.06;15.57
31225;BME280;17847;31.524;74.366;2023-01-16T07:06:25;99361.41;;;19.11;15.21
31225;BME280;17847;31.524;74.366;2023-01-16T07:09:21;99365.59;;;19.30;16.56
31225;BME280;17847;31.524;74.366;2023-01-16T07:12:10;99348.69;;;19.42;15.36
31225;BME280;17847;31.524;74.366;2023-01-16T07:14:58;99351.34;;;19.07;14.80
31225;BME280;17847;31.524;74.366;2023-01-16T07:17:59;99340.97;;;19.10;14.91
31225;BME280;17847;31.524;74.366;2023-01-16T07:21:10;99338.25;;;18.99;15.42
31225;BME280;17847;31.524;74.366;2023-01-16T07:24:16;99332.53;;;18.95;16.33
31225;BME280;17847;31.524;74.366;2023-01-16T07:27:07;99333.94;;;18.98;17.37
31225;BME280;17847;31.524;74.366;2023-01-16T07:29:51;99323.03;;;18.81;15.91
31225;BME280;17847;31.524;74.366;2023-01-16T07:32:40;99328.44;;;18.93;18.29
31225;BME280;17847;31.524;74.366;2023-01-16T07:35:22;99312.38;;;19.16;17.15
31225;BME280;17847;31.524;74.366;2023-01-16T07:38:18;99314.47;;;19.14;17.62
31225;BME280;17847;31.524;74.366;2023-01-16T07:41:01;99301.63;;;19.16;17.75
31225;BME280;17847;31.524;74.366;2023-01-16T07:43:50;99298.56;;;19.01;16.44
31225;BME280;17847;31.524;74.366;2023-01-16T07:46:39;99303.25;;;18.94;18.47
31225;BME280;17847;31.524;74.366;2023-01-16T07:49:34;99285.13;;;18.77;15.60
31225;BME280;17847;31.524;74.366;2023-01-16T07:52:16;99282.44;;;18.77;15.57
31225;BME280;17847;31.524;74.366;2023-01-16T07:55:05;99276.25;;;18.77;16.26
31225;BME280;17847;31.524;74.366;2023-01-16T07:57:47;99267.97;;;18.67;16.72
31225;BME280;17847;31.524;74.366;2023-01-16T08:00:36;99278.16;;;18.88;17.90
31225;BME280;17847;31.524;74.366;2023-01-16T08:03:12;99271.13;;;18.75;17.25
31225;BME280;17847;31.524;74.366;2023-01-16T08:06:08;99270.06;;;18.76;17.18
31225;BME280;17847;31.524;74.366;2023-01-16T08:08:43;99274.03;;;18.74;17.72
31225;BME280;17847;31.524;74.366;2023-01-16T08:11:39;99270.31;;;18.75;16.52
31225;BME280;17847;31.524;74.366;2023-01-16T08:14:23;99269.09;;;18.59;16.55
31225;BME280;17847;31.524;74.366;2023-01-16T08:17:12;99269.22;;;18.64;16.49
31225;BME280;17847;31.524;74.366;2023-01-16T08:19:47;99254.16;;;18.63;17.19
31225;BME280;17847;31.524;74.366;2023-01-16T08:22:45;99257.94;;;18.62;17.47
31225;BME280;17847;31.524;74.366;2023-01-16T08:25:23;99257.38;;;18.83;18.06
31225;BME280;17847;31.524;74.366;2023-01-16T08:28:19;99259.22;;;18.71;16.89
31225;BME280;17847;31.524;74.366;2023-01-16T08:31:06;99255.81;;;18.64;17.61
31225;BME280;17847;31.524;74.366;2023-01-16T08:34:01;99259.88;;;18.55;16.60
31225;BME280;17847;31.524;74.366;2023-01-16T08:36:36;99254.06;;;18.58;17.39
31225;BME280;17847;31.524;74.366;2023-01-16T08:39:32;99253.47;;;18.68;18.56
31225;BME280;17847;31.524;74.366;2023-01-16T08:42:08;99250.50;;;18.46;16.84
31225;BME280;17847;31.524;74.366;2023-01-16T08:45:21;99232.47;;;18.53;17.13
31225;BME280;17847;31.524;74.366;2023-01-16T08:48:35;99246.50;;;18.37;16.96
31225;BME280;17847;31.524;74.366;2023-01-16T08:51:36;99237.63;;;18.25;17.28
31225;BME280;17847;31.524;74.366;2023-01-16T08:54:26;99238.41;;;18.14;18.19
31225;BME280;17847;31.524;74.366;2023-01-16T08:57:08;99238.44;;;17.95;17.44
31225;BME280;17847;31.524;74.366;2023-01-16T08:59:57;99236.59;;;17.96;19.31
31225;BME280;17847;31.524;74.366;2023-01-16T09:02:40;99235.31;;;17.99;18.74
31225;BME280;17847;31.524;74.366;2023-01-16T09:05:28;99226.47;;;17.80;17.98
31225;BME280;17847;31.524;74.366;2023-01-16T09:08:10;99228.34;;;17.79;18.60
31225;BME280;17847;31.524;74.366;2023-01-16T09:11:06;99217.41;;;17.81;20.41
31225;BME280;17847;31.524;74.366;2023-01-16T09:14:06;99215.34;;;17.83;19.25
31225;BME280;17847;31.524;74.366;2023-01-16T09:17:07;99216.59;;;17.80;18.98
31225;BME280;17847;31.524;74.366;2023-01-16T09:19:48;99208.34;;;17.82;18.33
31225;BME280;17847;31.524;74.366;2023-01-16T09:22:37;99202.63;;;17.78;18.32
31225;BME280;17847;31.524;74.366;2023-01-16T09:25:19;99209.53;;;17.68;17.57
31225;BME280;17847;31.524;74.366;2023-01-16T09:28:08;99203.16;;;17.69;18.53
31225;BME280;17847;31.524;74.366;2023-01-16T09:30:51;99201.03;;;17.71;18.19
31225;BME280;17847;31.524;74.366;2023-01-16T09:33:47;99199.97;;;17.60;18.40
31225;BME280;17847;31.524;74.366;2023-01-16T09:36:23;99200.81;;;17.54;17.86
31225;BME280;17847;31.524;74.366;2023-01-16T09:39:19;99199.50;;;17.63;17.75
31225;BME280;17847;31.524;74.366;2023-01-16T09:45:31;99193.59;;;17.55;18.42
31225;BME280;17847;31.524;74.366;2023-01-16T09:48:23;99187.66;;;17.52;17.74
31225;BME280;17847;31.524;74.366;2023-01-16T09:51:32;99194.06;;;17.51;17.18
31225;BME280;17847;31.524;74.366;2023-01-16T09:54:12;99190.22;;;17.47;18.45
31225;BME280;17847;31.524;74.366;2023-01-16T09:57:31;99191.16;;;17.35;18.68
31225;BME280;17847;31.524;74.366;2023-01-16T10:00:26;99193.84;;;17.35;19.72
31225;BME280;17847;31.524;74.366;2023-01-16T10:03:24;99194.75;;;17.29;30.55
31225;BME280;17847;31.524;74.366;2023-01-16T10:06:35;99192.91;;;16.86;25.01
31225;BME280;17847;31.524;74.366;2023-01-16T10:12:12;99192.56;;;16.58;24.70
31225;BME280;17847;31.524;74.366;2023-01-16T10:21:48;99187.81;;;16.60;23.41
31225;BME280;17847;31.524;74.366;2023-01-16T10:30:52;99176.34;;;16.53;21.58
31225;BME280;17847;31.524;74.366;2023-01-16T10:36:33;99183.75;;;16.51;22.45
31225;BME280;17847;31.524;74.366;2023-01-16T10:39:26;99178.84;;;16.48;21.23
31225;BME280;17847;31.524;74.366;2023-01-16T10:42:15;99175.84;;;16.38;21.76
31225;BME280;17847;31.524;74.366;2023-01-16T10:45:28;99185.50;;;16.39;21.58
31225;BME280;17847;31.524;74.366;2023-01-16T10:48:43;99183.44;;;16.41;21.66
31225;BME280;17847;31.524;74.366;2023-01-16T10:51:44;99176.06;;;16.36;21.54
31225;BME280;17847;31.524;74.366;2023-01-16T10:54:32;99177.91;;;16.36;22.41
31225;BME280;17847;31.524;74.366;2023-01-16T10:57:17;99181.41;;;16.36;22.30
31225;BME280;17847;31.524;74.366;2023-01-16T11:00:34;99181.28;;;16.25;23.36
31225;BME280;17847;31.524;74.366;2023-01-16T11:03:23;99177.00;;;16.24;23.30
31225;BME280;17847;31.524;74.366;2023-01-16T11:06:25;99166.34;;;16.17;22.80
31225;BME280;17847;31.524;74.366;2023-01-16T11:09:17;99174.00;;;16.07;24.63
31225;BME280;17847;31.524;74.366;2023-01-16T11:12:11;99172.63;;;15.98;21.24
31225;BME280;17847;31.524;74.366;2023-01-16T11:15:21;99174.91;;;15.94;23.33
31225;BME280;17847;31.524;74.366;2023-01-16T11:18:38;99183.63;;;15.83;22.65
31225;BME280;17847;31.524;74.366;2023-01-16T11:21:27;99178.50;;;15.82;21.99
31225;BME280;17847;31.524;74.366;2023-01-16T11:24:32;99175.44;;;15.78;24.72
31225;BME280;17847;31.524;74.366;2023-01-16T11:27:19;99180.81;;;15.71;22.08
31225;BME280;17847;31.524;74.366;2023-01-16T11:30:21;99174.31;;;15.61;22.61
31225;BME280;17847;31.524;74.366;2023-01-16T11:33:20;99176.16;;;15.54;23.34
31225;BME280;17847;31.524;74.366;2023-01-16T11:36:10;99170.66;;;15.42;23.55
31225;BME280;17847;31.524;74.366;2023-01-16T11:38:53;99172.69;;;15.40;21.96
31225;BME280;17847;31.524;74.366;2023-01-16T11:41:45;99176.63;;;15.38;23.88
31225;BME280;17847;31.524;74.366;2023-01-16T11:44:33;99175.66;;;15.25;23.92
31225;BME280;17847;31.524;74.366;2023-01-16T11:47:53;99166.84;;;15.18;26.69
31225;BME280;17847;31.524;74.366;2023-01-16T11:50:36;99165.66;;;15.08;24.00
31225;BME280;17847;31.524;74.366;2023-01-16T11:53:32;99172.22;;;15.05;23.50
31225;BME280;17847;31.524;74.366;2023-01-16T11:59:38;99174.28;;;14.97;26.48
31225;BME280;17847;31.524;74.366;2023-01-16T12:05:47;99179.28;;;14.67;27.66
31225;BME280;17847;31.524;74.366;2023-01-16T12:14:45;99184.81;;;14.52;32.81
31225;BME280;17847;31.524;74.366;2023-01-16T12:18:16;99181.72;;;14.29;33.12
31225;BME280;17847;31.524;74.366;2023-01-16T12:21:03;99188.50;;;14.25;31.42
31225;BME280;17847;31.524;74.366;2023-01-16T12:27:40;99190.31;;;13.98;34.31
31225;BME280;17847;31.524;74.366;2023-01-16T12:33:32;99200.72;;;14.00;40.61
31225;BME280;17847;31.524;74.366;2023-01-16T12:36:42;99195.59;;;13.85;39.59
31225;BME280;17847;31.524;74.366;2023-01-16T12:42:20;99205.66;;;13.35;39.08
31225;BME280;17847;31.524;74.366;2023-01-16T12:45:41;99203.94;;;13.21;37.74
31225;BME280;17847;31.524;74.366;2023-01-16T12:48:55;99201.09;;;13.23;40.27
31225;BME280;17847;31.524;74.366;2023-01-16T12:52:06;99200.63;;;13.13;39.78
31225;BME280;17847;31.524;74.366;2023-01-16T12:55:20;99209.69;;;12.97;41.72
31225;BME280;17847;31.524;74.366;2023-01-16T12:58:30;99206.72;;;12.79;38.74
31225;BME280;17847;31.524;74.366;2023-01-16T13:01:25;99211.41;;;12.77;41.41
31225;BME280;17847;31.524;74.366;2023-01-16T13:04:14;99210.75;;;12.75;41.02
31225;BME280;17847;31.524;74.366;2023-01-16T13:07:05;99216.09;;;12.75;41.55
31225;BME280;17847;31.524;74.366;2023-01-16T13:09:56;99209.66;;;12.63;40.54
31225;BME280;17847;31.524;74.366;2023-01-16T13:13:17;99220.75;;;12.45;39.83
31225;BME280;17847;31.524;74.366;2023-01-16T13:16:20;99219.75;;;12.46;41.42
31225;BME280;17847;31.524;74.366;2023-01-16T13:19:14;99219.00;;;12.52;42.02
31225;BME280;17847;31.524;74.366;2023-01-16T13:25:34;99222.75;;;12.64;43.62
31225;BME280;17847;31.524;74.366;2023-01-16T13:28:45;99221.19;;;12.48;42.72
31225;BME280;17847;31.524;74.366;2023-01-16T13:34:34;99225.72;;;12.48;43.18
31225;BME280;17847;31.524;74.366;2023-01-16T13:37:44;99229.84;;;12.57;43.61
31225;BME280;17847;31.524;74.366;2023-01-16T13:40:41;99233.47;;;12.49;45.00
31225;BME280;17847;31.524;74.366;2023-01-16T13:44:30;99234.94;;;12.52;45.84
31225;BME280;17847;31.524;74.366;2023-01-16T13:47:23;99231.66;;;12.29;47.17
31225;BME280;17847;31.524;74.366;2023-01-16T13:50:17;99233.22;;;12.23;44.54
31225;BME280;17847;31.524;74.366;2023-01-16T13:53:08;99236.63;;;12.17;47.35
31225;BME280;17847;31.524;74.366;2023-01-16T13:56:02;99236.16;;;12.07;46.35
31225;BME280;17847;31.524;74.366;2023-01-16T13:59:02;99238.59;;;12.08;44.62
31225;BME280;17847;31.524;74.366;2023-01-16T14:04:38;99250.94;;;11.95;48.31
31225;BME280;17847;31.524;74.366;2023-01-16T14:20:52;99261.88;;;11.12;51.35
31225;BME280;17847;31.524;74.366;2023-01-16T14:23:54;99262.25;;;11.23;52.77
31225;BME280;17847;31.524;74.366;2023-01-16T14:29:52;99267.34;;;10.96;52.92
31225;BME280;17847;31.524;74.366;2023-01-16T14:32:32;99274.59;;;10.64;53.04
31225;BME280;17847;31.524;74.366;2023-01-16T14:35:40;99273.72;;;10.87;54.57
31225;BME280;17847;31.524;74.366;2023-01-16T14:38:20;99279.22;;;10.62;52.38
31225;BME280;17847;31.524;74.366;2023-01-16T14:41:17;99275.06;;;10.45;54.86
31225;BME280;17847;31.524;74.366;2023-01-16T14:44:22;99280.31;;;10.53;54.36
31225;BME280;17847;31.524;74.366;2023-01-16T14:47:45;99282.06;;;10.61;54.65
31225;BME280;17847;31.524;74.366;2023-01-16T14:57:16;99292.00;;;10.59;54.75
31225;BME280;17847;31.524;74.366;2023-01-16T15:02:58;99293.06;;;10.50;54.49
31225;BME280;17847;31.524;74.366;2023-01-16T15:05:49;99295.50;;;10.59;54.19
31225;BME280;17847;31.524;74.366;2023-01-16T15:08:41;99294.72;;;10.51;54.44
31225;BME280;17847;31.524;74.366;2023-01-16T15:11:27;99303.13;;;10.31;55.97
31225;BME280;17847;31.524;74.366;2023-01-16T15:14:18;99300.03;;;10.28;54.82
31225;BME280;17847;31.524;74.366;2023-01-16T15:17:25;99298.88;;;10.30;55.89
31225;BME280;17847;31.524;74.366;2023-01-16T15:20:43;99290.31;;;10.43;55.51
31225;BME280;17847;31.524;74.366;2023-01-16T15:23:57;99297.22;;;10.29;55.82
31225;BME280;17847;31.524;74.366;2023-01-16T15:29:51;99298.41;;;10.19;56.19
31225;BME280;17847;31.524;74.366;2023-01-16T15:36:00;99289.72;;;9.71;55.89
31225;BME280;17847;31.524;74.366;2023-01-16T15:38:52;99295.09;;;9.55;55.84
31225;BME280;17847;31.524;74.366;2023-01-16T15:42:24;99295.25;;;9.54;58.12
31225;BME280;17847;31.524;74.366;2023-01-16T15:45:58;99291.81;;;9.45;58.72
31225;BME280;17847;31.524;74.366;2023-01-16T15:52:03;99299.19;;;9.19;58.49
31225;BME280;17847;31.524;74.366;2023-01-16T15:54:59;99299.00;;;9.28;58.04
31225;BME280;17847;31.524;74.366;2023-01-16T15:57:45;99306.25;;;9.26;58.37
31225;BME280;17847;31.524;74.366;2023-01-16T16:00:37;99313.50;;;9.32;58.42
31225;BME280;17847;31.524;74.366;2023-01-16T16:03:16;99309.06;;;9.33;59.57
31225;BME280;17847;31.524;74.366;2023-01-16T16:06:15;99312.50;;;9.41;60.24
31225;BME280;17847;31.524;74.366;2023-01-16T16:08:53;99317.28;;;9.46;59.05
31225;BME280;17847;31.524;74.366;2023-01-16T16:11:51;99315.03;;;9.66;59.41
31225;BME280;17847;31.524;74.366;2023-01-16T16:14:37;99314.16;;;9.34;60.17
31225;BME280;17847;31.524;74.366;2023-01-16T16:18:00;99308.72;;;9.28;59.28
31225;BME280;17847;31.524;74.366;2023-01-16T16:20:39;99321.75;;;9.37;59.42
31225;BME280;17847;31.524;74.366;2023-01-16T16:23:35;99321.13;;;9.27;61.29
31225;BME280;17847;31.524;74.366;2023-01-16T16:26:14;99316.31;;;9.31;59.88
31225;BME280;17847;31.524;74.366;2023-01-16T16:29:18;99312.28;;;8.80;60.84
31225;BME280;17847;31.524;74.366;2023-01-16T16:32:04;99325.78;;;9.01;60.70
31225;BME280;17847;31.524;74.366;2023-01-16T16:34:55;99318.34;;;9.05;60.35
31225;BME280;17847;31.524;74.366;2023-01-16T16:37:41;99327.63;;;8.92;60.36
31225;BME280;17847;31.524;74.366;2023-01-16T16:40:31;99320.69;;;8.83;61.29
31225;BME280;17847;31.524;74.366;2023-01-16T16:43:13;99321.34;;;8.77;61.44
31225;BME280;17847;31.524;74.366;2023-01-16T16:46:32;99325.97;;;8.83;61.65
31225;BME280;17847;31.524;74.366;2023-01-16T16:55:39;99331.25;;;8.91;61.81
31225;BME280;17847;31.524;74.366;2023-01-16T16:58:43;99325.47;;;8.96;61.92
31225;BME280;17847;31.524;74.366;2023-01-16T17:01:25;99327.78;;;8.83;61.81
31225;BME280;17847;31.524;74.366;2023-01-16T17:04:21;99341.16;;;8.89;61.90
31225;BME280;17847;31.524;74.366;2023-01-16T17:06:57;99332.59;;;8.79;62.70
31225;BME280;17847;31.524;74.366;2023-01-16T17:09:54;99331.91;;;8.69;62.35
31225;BME280;17847;31.524;74.366;2023-01-16T17:12:29;99331.41;;;8.74;62.60
31225;BME280;17847;31.524;74.366;2023-01-16T17:15:27;99337.19;;;9.10;62.37